sensor_id;sensor_type;location;lat;lon;timestamp;temperature;humidity
18906;DHT22;9585;51.018;4.282;2023-10-19T00:01:58;14.90;99.90
18906;DHT22;9585;51.018;4.282;2023-10-19T00:04:24;14.90;99.90
18906;DHT22;9585;51.018;4.282;2023-10-19T00:06:52;14.90;99.90
18906;DHT22;9585;51.018;4.282;2023-10-19T00:09:19;15.00;99.90
18906;DHT22;9585;51.018;4.282;2023-10-19T00:11:50;14.90;99.90
18906;DHT22;9585;51.018;4.282;2023-10-19T00:14:18;14.90;99.90
18906;DHT22;9585;51.018;4.282;2023-10-19T00:16:48;14.90;99.90
18906;DHT22;9585;51.018;4.282;2023-10-19T00:19:19;14.90;99.90
18906;DHT22;9585;51.018;4.282;2023-10-19T00:21:46;14.90;99.90
18906;DHT22;9585;51.018;4.282;2023-10-19T00:24:21;14.90;99.90
18906;DHT22;9585;51.018;4.282;2023-10-19T00:26:49;15.00;99.90
18906;DHT22;9585;51.018;4.282;2023-10-19T00:29:19;15.00;99.90
18906;DHT22;9585;51.018;4.282;2023-10-19T00:32:08;15.00;99.90
18906;DHT22;9585;51.018;4.282;2023-10-19T00:34:40;14.90;99.90
18906;DHT22;9585;51.018;4.282;2023-10-19T00:37:09;15.00;99.90
18906;DHT22;9585;51.018;4.282;2023-10-19T00:39:38;15.00;99.90
18906;DHT22;9585;51.018;4.282;2023-10-19T00:42:09;14.90;99.90
18906;DHT22;9585;51.018;4.282;2023-10-19T00:44:41;14.90;99.90
18906;DHT22;9585;51.018;4.282;2023-10-19T00:47:10;14.90;99.90
18906;DHT22;9585;51.018;4.282;2023-10-19T00:49:40;15.00;99.90
18906;DHT22;9585;51.018;4.282;2023-10-19T00:52:10;15.00;99.90
18906;DHT22;9585;51.018;4.282;2023-10-19T00:54:46;15.00;99.90
18906;DHT22;9585;51.018;4.282;2023-10-19T00:57:19;15.00;99.90
18906;DHT22;9585;51.018;4.282;2023-10-19T00:59:48;15.00;99.90
18906;DHT22;9585;51.018;4.282;2023-10-19T01:02:21;15.00;99.90
18906;DHT22;9585;51.018;4.282;2023-10-19T01:04:56;15.00;99.90
18906;DHT22;9585;51.018;4.282;2023-10-19T01:07:26;15.00;99.90
18906;DHT22;9585;51.018;4.282;2023-10-19T01:09:57;15.00;99.90
18906;DHT22;9585;51.018;4.282;2023-10-19T01:12:25;15.00;99.90
18906;DHT22;9585;51.018;4.282;2023-10-19T01:15:07;15.00;99.90
18906;DHT22;9585;51.018;4.282;2023-10-19T01:17:41;15.00;99.90
18906;DHT22;9585;51.018;4.282;2023-10-19T01:20:11;15.00;99.90
18906;DHT22;9585;51.018;4.282;2023-10-19T01:23:00;15.00;99.90
18906;DHT22;9585;51.018;4.282;2023-10-19T01:25:48;14.90;99.90
18906;DHT22;9585;51.018;4.282;2023-10-19T01:28:27;15.00;99.90
18906;DHT22;9585;51.018;4.282;2023-10-19T01:31:09;15.00;99.90
18906;DHT22;9585;51.018;4.282;2023-10-19T01:33:41;15.00;99.90
18906;DHT22;9585;51.018;4.282;2023-10-19T01:36:10;15.10;99.90
18906;DHT22;9585;51.018;4.282;2023-10-19T01:38:39;15.10;99.90
18906;DHT22;9585;51.018;4.282;2023-10-19T01:41:07;15.10;99.90
18906;DHT22;9585;51.018;4.282;2023-10-19T01:43:40;15.10;99.90
18906;DHT22;9585;51.018;4.282;2023-10-19T01:46:07;15.00;99.90
18906;DHT22;9585;51.018;4.282;2023-10-19T01:48:39;14.90;99.90
18906;DHT22;9585;51.018;4.282;2023-10-19T01:51:07;14.90;99.90
18906;DHT22;9585;51.018;4.282;2023-10-19T01:53:39;14.90;99.90
18906;DHT22;9585;51.018;4.282;2023-10-19T01:56:06;14.90;99.90
18906;DHT22;9585;51.018;4.282;2023-10-19T01:58:35;14.80;99.90
18906;DHT22;9585;51.018;4.282;2023-10-19T02:01:02;14.80;99.90
18906;DHT22;9585;51.018;4.282;2023-10-19T02:03:32;14.80;99.90
18906;DHT22;9585;51.018;4.282;2023-10-19T02:06:00;14.80;99.90
18906;DHT22;9585;51.018;4.282;2023-10-19T02:08:36;14.80;99.90
18906;DHT22;9585;51.018;4.282;2023-10-19T02:11:06;14.90;99.90
18906;DHT22;9585;51.018;4.282;2023-10-19T02:13:45;14.90;99.90
18906;DHT22;9585;51.018;4.282;2023-10-19T02:16:13;14.90;99.90
18906;DHT22;9585;51.018;4.282;2023-10-19T02:18:42;14.80;99.90
18906;DHT22;9585;51.018;4.282;2023-10-19T02:21:09;14.80;99.90
18906;DHT22;9585;51.018;4.282;2023-10-19T02:23:39;14.70;99.90
18906;DHT22;9585;51.018;4.282;2023-10-19T02:26:09;14.80;99.90
18906;DHT22;9585;51.018;4.282;2023-10-19T02:28:39;14.80;99.90
18906;DHT22;9585;51.018;4.282;2023-10-19T02:31:06;14.80;99.90
18906;DHT22;9585;51.018;4.282;2023-10-19T02:33:43;14.70;99.90
18906;DHT22;9585;51.018;4.282;2023-10-19T02:36:12;14.70;99.90
18906;DHT22;9585;51.018;4.282;2023-10-19T02:38:45;14.80;99.90
18906;DHT22;9585;51.018;4.282;2023-10-19T02:41:16;14.80;99.90
18906;DHT22;9585;51.018;4.282;2023-10-19T02:43:45;14.80;99.90
18906;DHT22;9585;51.018;4.282;2023-10-19T02:46:13;14.90;99.90
18906;DHT22;9585;51.018;4.282;2023-10-19T02:48:43;14.90;99.90
18906;DHT22;9585;51.018;4.282;2023-10-19T02:51:11;14.80;99.90
18906;DHT22;9585;51.018;4.282;2023-10-19T02:53:39;14.80;99.90
18906;DHT22;9585;51.018;4.282;2023-10-19T02:56:12;14.80;99.90
18906;DHT22;9585;51.018;4.282;2023-10-19T02:58:45;14.80;99.90
18906;DHT22;9585;51.018;4.282;2023-10-19T03:01:16;14.80;99.90
18906;DHT22;9585;51.018;4.282;2023-10-19T03:03:50;14.70;99.90
18906;DHT22;9585;51.018;4.282;2023-10-19T03:06:20;14.60;99.90
18906;DHT22;9585;51.018;4.282;2023-10-19T03:08:48;14.60;99.90
18906;DHT22;9585;51.018;4.282;2023-10-19T03:11:23;14.60;99.90
18906;DHT22;9585;51.018;4.282;2023-10-19T03:13:52;14.60;99.90
18906;DHT22;9585;51.018;4.282;2023-10-19T03:16:19;14.60;99.90
18906;DHT22;9585;51.018;4.282;2023-10-19T03:18:47;14.50;99.90
18906;DHT22;9585;51.018;4.282;2023-10-19T03:21:14;14.40;99.90
18906;DHT22;9585;51.018;4.282;2023-10-19T03:23:42;14.40;99.90
18906;DHT22;9585;51.018;4.282;2023-10-19T03:26:09;14.40;99.90
18906;DHT22;9585;51.018;4.282;2023-10-19T03:28:48;14.50;99.90
18906;DHT22;9585;51.018;4.282;2023-10-19T03:31:16;14.50;99.90
18906;DHT22;9585;51.018;4.282;2023-10-19T03:33:46;14.60;99.90
18906;DHT22;9585;51.018;4.282;2023-10-19T03:36:20;14.60;99.90
18906;DHT22;9585;51.018;4.282;2023-10-19T03:38:48;14.60;99.90
18906;DHT22;9585;51.018;4.282;2023-10-19T03:41:17;14.60;99.90
18906;DHT22;9585;51.018;4.282;2023-10-19T03:43:48;14.60;99.90
18906;DHT22;9585;51.018;4.282;2023-10-19T03:46:19;14.50;99.90
18906;DHT22;9585;51.018;4.282;2023-10-19T03:48:54;14.50;99.90
18906;DHT22;9585;51.018;4.282;2023-10-19T03:51:25;14.50;99.90
18906;DHT22;9585;51.018;4.282;2023-10-19T03:53:53;14.60;99.90
18906;DHT22;9585;51.018;4.282;2023-10-19T03:56:21;14.60;99.90
18906;DHT22;9585;51.018;4.282;2023-10-19T03:58:50;14.70;99.90
18906;DHT22;9585;51.018;4.282;2023-10-19T04:01:19;14.70;99.90
18906;DHT22;9585;51.018;4.282;2023-10-19T04:03:47;14.70;99.90
18906;DHT22;9585;51.018;4.282;2023-10-19T04:06:17;14.60;99.90
18906;DHT22;9585;51.018;4.282;2023-10-19T04:08:46;14.70;99.90
18906;DHT22;9585;51.018;4.282;2023-10-19T04:11:17;14.60;99.90
18906;DHT22;9585;51.018;4.282;2023-10-19T04:13:58;14.50;99.90
18906;DHT22;9585;51.018;4.282;2023-10-19T04:16:31;14.50;99.90
18906;DHT22;9585;51.018;4.282;2023-10-19T04:19:03;14.50;99.90
18906;DHT22;9585;51.018;4.282;2023-10-19T04:21:31;14.50;99.90
18906;DHT22;9585;51.018;4.282;2023-10-19T04:24:05;14.60;99.90
18906;DHT22;9585;51.018;4.282;2023-10-19T04:26:33;14.70;99.90
18906;DHT22;9585;51.018;4.282;2023-10-19T04:29:03;14.70;99.90
18906;DHT22;9585;51.018;4.282;2023-10-19T04:31:37;14.60;99.90
18906;DHT22;9585;51.018;4.282;2023-10-19T04:34:15;14.60;99.90
18906;DHT22;9585;51.018;4.282;2023-10-19T04:36:46;14.60;99.90
18906;DHT22;9585;51.018;4.282;2023-10-19T04:39:14;14.60;99.90
18906;DHT22;9585;51.018;4.282;2023-10-19T04:41:45;14.50;99.90
18906;DHT22;9585;51.018;4.282;2023-10-19T04:44:14;14.60;99.90
18906;DHT22;9585;51.018;4.282;2023-10-19T04:46:44;14.60;99.90
18906;DHT22;9585;51.018;4.282;2023-10-19T04:49:12;14.60;99.90
18906;DHT22;9585;51.018;4.282;2023-10-19T04:51:39;14.60;99.90
18906;DHT22;9585;51.018;4.282;2023-10-19T04:54:09;14.60;99.90
18906;DHT22;9585;51.018;4.282;2023-10-19T04:56:37;14.60;99.90
18906;DHT22;9585;51.018;4.282;2023-10-19T04:59:04;14.50;99.90
18906;DHT22;9585;51.018;4.282;2023-10-19T05:01:32;14.60;99.90
18906;DHT22;9585;51.018;4.282;2023-10-19T05:04:02;14.60;99.90
18906;DHT22;9585;51.018;4.282;2023-10-19T05:06:29;14.60;99.90
18906;DHT22;9585;51.018;4.282;2023-10-19T05:08:57;14.60;99.90
18906;DHT22;9585;51.018;4.282;2023-10-19T05:11:25;14.60;99.90
18906;DHT22;9585;51.018;4.282;2023-10-19T05:13:53;14.60;99.90
18906;DHT22;9585;51.018;4.282;2023-10-19T05:16:20;14.70;99.90
18906;DHT22;9585;51.018;4.282;2023-10-19T05:18:48;14.70;99.90
18906;DHT22;9585;51.018;4.282;2023-10-19T05:21:17;14.70;99.90
18906;DHT22;9585;51.018;4.282;2023-10-19T05:23:45;14.70;99.90
18906;DHT22;9585;51.018;4.282;2023-10-19T05:26:12;14.60;99.90
18906;DHT22;9585;51.018;4.282;2023-10-19T05:28:41;14.60;99.90
18906;DHT22;9585;51.018;4.282;2023-10-19T05:31:09;14.60;99.90
18906;DHT22;9585;51.018;4.282;2023-10-19T05:33:38;14.60;99.90
18906;DHT22;9585;51.018;4.282;2023-10-19T05:36:06;14.70;99.90
18906;DHT22;9585;51.018;4.282;2023-10-19T05:38:36;14.70;99.90
18906;DHT22;9585;51.018;4.282;2023-10-19T05:41:04;14.70;99.90
18906;DHT22;9585;51.018;4.282;2023-10-19T05:43:31;14.70;99.90
18906;DHT22;9585;51.018;4.282;2023-10-19T05:46:00;14.70;99.90
18906;DHT22;9585;51.018;4.282;2023-10-19T05:48:28;14.70;99.90
18906;DHT22;9585;51.018;4.282;2023-10-19T05:50:56;14.70;99.90
18906;DHT22;9585;51.018;4.282;2023-10-19T05:53:23;14.60;99.90
18906;DHT22;9585;51.018;4.282;2023-10-19T05:55:52;14.60;99.90
18906;DHT22;9585;51.018;4.282;2023-10-19T05:58:20;14.70;99.90
18906;DHT22;9585;51.018;4.282;2023-10-19T06:00:47;14.70;99.90
18906;DHT22;9585;51.018;4.282;2023-10-19T06:03:17;14.70;99.90
18906;DHT22;9585;51.018;4.282;2023-10-19T06:05:45;14.70;99.90
18906;DHT22;9585;51.018;4.282;2023-10-19T06:08:13;14.70;99.90
18906;DHT22;9585;51.018;4.282;2023-10-19T06:10:40;14.60;99.90
18906;DHT22;9585;51.018;4.282;2023-10-19T06:13:09;14.60;99.90
18906;DHT22;9585;51.018;4.282;2023-10-19T06:15:37;14.60;99.90
18906;DHT22;9585;51.018;4.282;2023-10-19T06:18:05;14.60;99.90
18906;DHT22;9585;51.018;4.282;2023-10-19T06:20:32;14.60;99.90
18906;DHT22;9585;51.018;4.282;2023-10-19T06:22:59;14.60;99.90
18906;DHT22;9585;51.018;4.282;2023-10-19T06:25:31;14.60;99.90
18906;DHT22;9585;51.018;4.282;2023-10-19T06:28:00;14.60;99.90
18906;DHT22;9585;51.018;4.282;2023-10-19T06:30:29;14.50;99.90
18906;DHT22;9585;51.018;4.282;2023-10-19T06:32:59;14.50;99.90
18906;DHT22;9585;51.018;4.282;2023-10-19T06:35:27;14.50;99.90
18906;DHT22;9585;51.018;4.282;2023-10-19T06:37:56;14.60;99.90
18906;DHT22;9585;51.018;4.282;2023-10-19T06:40:23;14.50;99.90
18906;DHT22;9585;51.018;4.282;2023-10-19T06:42:54;14.30;99.90
18906;DHT22;9585;51.018;4.282;2023-10-19T06:45:22;14.40;99.90
18906;DHT22;9585;51.018;4.282;2023-10-19T06:47:52;14.40;99.90
18906;DHT22;9585;51.018;4.282;2023-10-19T06:50:22;14.40;99.90
18906;DHT22;9585;51.018;4.282;2023-10-19T06:52:49;14.50;99.90
18906;DHT22;9585;51.018;4.282;2023-10-19T06:55:18;14.50;99.90
18906;DHT22;9585;51.018;4.282;2023-10-19T06:57:47;14.50;99.90
18906;DHT22;9585;51.018;4.282;2023-10-19T07:00:16;14.50;99.90
18906;DHT22;9585;51.018;4.282;2023-10-19T07:02:46;14.40;99.90
18906;DHT22;9585;51.018;4.282;2023-10-19T07:05:15;14.50;99.90
18906;DHT22;9585;51.018;4.282;2023-10-19T07:07:48;14.80;99.90
18906;DHT22;9585;51.018;4.282;2023-10-19T07:10:18;14.80;99.90
18906;DHT22;9585;51.018;4.282;2023-10-19T07:12:46;15.30;99.90
18906;DHT22;9585;51.018;4.282;2023-10-19T07:15:14;15.50;99.90
18906;DHT22;9585;51.018;4.282;2023-10-19T07:17:45;15.50;99.90
18906;DHT22;9585;51.018;4.282;2023-10-19T07:20:16;15.60;99.90
18906;DHT22;9585;51.018;4.282;2023-10-19T07:22:51;15.70;99.90
18906;DHT22;9585;51.018;4.282;2023-10-19T07:25:19;15.90;99.90
18906;DHT22;9585;51.018;4.282;2023-10-19T07:27:48;16.20;99.90
18906;DHT22;9585;51.018;4.282;2023-10-19T07:30:16;16.30;99.90
18906;DHT22;9585;51.018;4.282;2023-10-19T07:32:48;16.60;99.90
18906;DHT22;9585;51.018;4.282;2023-10-19T07:35:22;16.70;99.90
18906;DHT22;9585;51.018;4.282;2023-10-19T07:37:51;16.70;99.90
18906;DHT22;9585;51.018;4.282;2023-10-19T07:40:19;16.40;99.90
18906;DHT22;9585;51.018;4.282;2023-10-19T07:42:48;16.50;99.90
18906;DHT22;9585;51.018;4.282;2023-10-19T07:45:18;16.60;99.90
18906;DHT22;9585;51.018;4.282;2023-10-19T07:47:45;17.10;99.90
18906;DHT22;9585;51.018;4.282;2023-10-19T07:50:14;17.90;99.90
18906;DHT22;9585;51.018;4.282;2023-10-19T07:52:45;18.20;99.90
18906;DHT22;9585;51.018;4.282;2023-10-19T07:55:15;18.50;99.90
18906;DHT22;9585;51.018;4.282;2023-10-19T07:57:42;18.00;99.90
18906;DHT22;9585;51.018;4.282;2023-10-19T08:00:12;17.70;99.90
18906;DHT22;9585;51.018;4.282;2023-10-19T08:02:41;17.30;99.90
18906;DHT22;9585;51.018;4.282;2023-10-19T08:05:11;17.00;99.90
18906;DHT22;9585;51.018;4.282;2023-10-19T08:07:39;16.70;99.90
18906;DHT22;9585;51.018;4.282;2023-10-19T08:10:11;16.50;99.90
18906;DHT22;9585;51.018;4.282;2023-10-19T08:12:40;16.20;99.90
18906;DHT22;9585;51.018;4.282;2023-10-19T08:15:09;16.00;99.90
18906;DHT22;9585;51.018;4.282;2023-10-19T08:17:37;16.10;99.90
18906;DHT22;9585;51.018;4.282;2023-10-19T08:20:06;16.00;99.90
18906;DHT22;9585;51.018;4.282;2023-10-19T08:22:35;16.10;99.90
18906;DHT22;9585;51.018;4.282;2023-10-19T08:25:04;16.30;99.90
18906;DHT22;9585;51.018;4.282;2023-10-19T08:27:39;16.30;99.90
18906;DHT22;9585;51.018;4.282;2023-10-19T08:30:07;16.30;99.90
18906;DHT22;9585;51.018;4.282;2023-10-19T08:32:35;16.30;99.90
18906;DHT22;9585;51.018;4.282;2023-10-19T08:35:07;16.30;99.90
18906;DHT22;9585;51.018;4.282;2023-10-19T08:37:50;16.30;99.90
18906;DHT22;9585;51.018;4.282;2023-10-19T08:40:19;16.40;99.90
18906;DHT22;9585;51.018;4.282;2023-10-19T08:42:49;16.30;99.90
18906;DHT22;9585;51.018;4.282;2023-10-19T08:45:17;16.20;99.90
18906;DHT22;9585;51.018;4.282;2023-10-19T08:47:53;16.20;99.90
18906;DHT22;9585;51.018;4.282;2023-10-19T08:50:23;16.40;99.90
18906;DHT22;9585;51.018;4.282;2023-10-19T08:52:54;16.60;99.90
18906;DHT22;9585;51.018;4.282;2023-10-19T08:55:22;16.70;99.90
18906;DHT22;9585;51.018;4.282;2023-10-19T08:57:51;16.70;99.90
18906;DHT22;9585;51.018;4.282;2023-10-19T09:00:19;16.60;99.90
18906;DHT22;9585;51.018;4.282;2023-10-19T09:02:51;16.50;99.90
18906;DHT22;9585;51.018;4.282;2023-10-19T09:05:19;16.50;99.90
18906;DHT22;9585;51.018;4.282;2023-10-19T09:07:48;16.40;99.90
18906;DHT22;9585;51.018;4.282;2023-10-19T09:10:22;16.50;99.90
18906;DHT22;9585;51.018;4.282;2023-10-19T09:13:00;16.30;99.90
18906;DHT22;9585;51.018;4.282;2023-10-19T09:15:28;16.30;99.90
18906;DHT22;9585;51.018;4.282;2023-10-19T09:17:58;16.30;99.90
18906;DHT22;9585;51.018;4.282;2023-10-19T09:20:25;16.30;99.90
18906;DHT22;9585;51.018;4.282;2023-10-19T09:22:54;16.40;99.90
18906;DHT22;9585;51.018;4.282;2023-10-19T09:25:51;16.40;99.90
18906;DHT22;9585;51.018;4.282;2023-10-19T09:28:32;16.50;99.90
18906;DHT22;9585;51.018;4.282;2023-10-19T09:31:02;16.30;99.90
18906;DHT22;9585;51.018;4.282;2023-10-19T09:33:31;16.30;99.90
18906;DHT22;9585;51.018;4.282;2023-10-19T09:36:00;16.20;99.90
18906;DHT22;9585;51.018;4.282;2023-10-19T09:38:30;16.10;99.90
18906;DHT22;9585;51.018;4.282;2023-10-19T09:41:00;16.20;99.90
18906;DHT22;9585;51.018;4.282;2023-10-19T09:43:34;16.30;99.90
18906;DHT22;9585;51.018;4.282;2023-10-19T09:46:06;16.40;99.90
18906;DHT22;9585;51.018;4.282;2023-10-19T09:48:39;16.40;99.90
18906;DHT22;9585;51.018;4.282;2023-10-19T09:51:08;16.30;99.90
18906;DHT22;9585;51.018;4.282;2023-10-19T09:53:38;16.20;99.90
18906;DHT22;9585;51.018;4.282;2023-10-19T09:56:13;16.30;99.90
18906;DHT22;9585;51.018;4.282;2023-10-19T09:58:46;16.40;99.90
18906;DHT22;9585;51.018;4.282;2023-10-19T10:01:15;16.40;99.90
18906;DHT22;9585;51.018;4.282;2023-10-19T10:03:48;16.40;99.90
18906;DHT22;9585;51.018;4.282;2023-10-19T10:06:26;16.40;99.90
18906;DHT22;9585;51.018;4.282;2023-10-19T10:08:54;16.30;99.90
18906;DHT22;9585;51.018;4.282;2023-10-19T10:11:25;16.30;99.90
18906;DHT22;9585;51.018;4.282;2023-10-19T10:13:54;16.30;99.90
18906;DHT22;9585;51.018;4.282;2023-10-19T10:16:23;16.40;99.90
18906;DHT22;9585;51.018;4.282;2023-10-19T10:18:54;16.40;99.90
18906;DHT22;9585;51.018;4.282;2023-10-19T10:21:25;16.40;99.90
18906;DHT22;9585;51.018;4.282;2023-10-19T10:23:54;16.40;99.90
18906;DHT22;9585;51.018;4.282;2023-10-19T10:26:26;16.70;99.90
18906;DHT22;9585;51.018;4.282;2023-10-19T10:29:09;16.90;99.90
18906;DHT22;9585;51.018;4.282;2023-10-19T10:31:42;17.30;99.90
18906;DHT22;9585;51.018;4.282;2023-10-19T10:34:10;17.30;99.90
18906;DHT22;9585;51.018;4.282;2023-10-19T10:36:59;17.30;99.90
18906;DHT22;9585;51.018;4.282;2023-10-19T10:39:28;17.20;99.90
18906;DHT22;9585;51.018;4.282;2023-10-19T10:41:59;17.10;99.90
18906;DHT22;9585;51.018;4.282;2023-10-19T10:44:38;17.10;99.90
18906;DHT22;9585;51.018;4.282;2023-10-19T10:47:07;17.10;99.90
18906;DHT22;9585;51.018;4.282;2023-10-19T10:49:52;17.10;99.90
18906;DHT22;9585;51.018;4.282;2023-10-19T10:52:30;17.20;99.90
18906;DHT22;9585;51.018;4.282;2023-10-19T10:54:58;17.10;99.90
18906;DHT22;9585;51.018;4.282;2023-10-19T10:57:32;17.10;99.90
18906;DHT22;9585;51.018;4.282;2023-10-19T11:00:05;17.10;99.90
18906;DHT22;9585;51.018;4.282;2023-10-19T11:02:35;17.10;99.90
18906;DHT22;9585;51.018;4.282;2023-10-19T11:05:03;17.10;99.90
18906;DHT22;9585;51.018;4.282;2023-10-19T11:07:30;17.10;99.90
18906;DHT22;9585;51.018;4.282;2023-10-19T11:09:58;17.00;99.90
18906;DHT22;9585;51.018;4.282;2023-10-19T11:12:27;17.00;99.90
18906;DHT22;9585;51.018;4.282;2023-10-19T11:14:58;16.80;99.90
18906;DHT22;9585;51.018;4.282;2023-10-19T11:17:26;16.80;99.90
18906;DHT22;9585;51.018;4.282;2023-10-19T11:19:56;16.70;99.90
18906;DHT22;9585;51.018;4.282;2023-10-19T11:22:24;16.50;99.90
18906;DHT22;9585;51.018;4.282;2023-10-19T11:24:52;16.40;99.90
18906;DHT22;9585;51.018;4.282;2023-10-19T11:27:24;16.30;99.90
18906;DHT22;9585;51.018;4.282;2023-10-19T11:29:57;16.30;99.90
18906;DHT22;9585;51.018;4.282;2023-10-19T11:32:25;16.30;99.90
18906;DHT22;9585;51.018;4.282;2023-10-19T11:34:53;16.30;99.90
18906;DHT22;9585;51.018;4.282;2023-10-19T11:37:21;16.50;99.90
18906;DHT22;9585;51.018;4.282;2023-10-19T11:39:49;16.50;99.90
18906;DHT22;9585;51.018;4.282;2023-10-19T11:42:17;16.40;99.90
18906;DHT22;9585;51.018;4.282;2023-10-19T11:44:45;16.40;99.90
18906;DHT22;9585;51.018;4.282;2023-10-19T11:47:14;16.40;99.90
18906;DHT22;9585;51.018;4.282;2023-10-19T11:49:42;16.50;99.90
18906;DHT22;9585;51.018;4.282;2023-10-19T11:52:10;16.50;99.90
18906;DHT22;9585;51.018;4.282;2023-10-19T11:54:37;16.50;99.90
18906;DHT22;9585;51.018;4.282;2023-10-19T11:57:05;16.50;99.90
18906;DHT22;9585;51.018;4.282;2023-10-19T11:59:33;16.50;99.90
18906;DHT22;9585;51.018;4.282;2023-10-19T12:02:00;16.50;99.90
18906;DHT22;9585;51.018;4.282;2023-10-19T12:04:31;16.50;99.90
18906;DHT22;9585;51.018;4.282;2023-10-19T12:07:02;16.60;99.90
18906;DHT22;9585;51.018;4.282;2023-10-19T12:09:30;16.70;99.90
18906;DHT22;9585;51.018;4.282;2023-10-19T12:11:58;16.70;99.90
18906;DHT22;9585;51.018;4.282;2023-10-19T12:14:27;16.80;99.90
18906;DHT22;9585;51.018;4.282;2023-10-19T12:16:54;16.70;99.90
18906;DHT22;9585;51.018;4.282;2023-10-19T12:19:22;16.70;99.90
18906;DHT22;9585;51.018;4.282;2023-10-19T12:21:51;16.70;99.90
18906;DHT22;9585;51.018;4.282;2023-10-19T12:24:18;16.80;99.90
18906;DHT22;9585;51.018;4.282;2023-10-19T12:26:47;16.80;99.90
18906;DHT22;9585;51.018;4.282;2023-10-19T12:29:14;16.80;99.90
18906;DHT22;9585;51.018;4.282;2023-10-19T12:31:43;16.80;99.90
18906;DHT22;9585;51.018;4.282;2023-10-19T12:34:12;16.80;99.90
18906;DHT22;9585;51.018;4.282;2023-10-19T12:36:40;16.70;99.90
18906;DHT22;9585;51.018;4.282;2023-10-19T12:39:11;16.70;99.90
18906;DHT22;9585;51.018;4.282;2023-10-19T12:41:59;16.70;99.90
18906;DHT22;9585;51.018;4.282;2023-10-19T12:44:27;16.70;99.90
18906;DHT22;9585;51.018;4.282;2023-10-19T12:46:57;16.70;99.90
18906;DHT22;9585;51.018;4.282;2023-10-19T12:49:25;16.70;99.90
18906;DHT22;9585;51.018;4.282;2023-10-19T12:51:53;16.80;99.90
18906;DHT22;9585;51.018;4.282;2023-10-19T12:54:22;16.80;99.90
18906;DHT22;9585;51.018;4.282;2023-10-19T12:56:50;16.80;99.90
18906;DHT22;9585;51.018;4.282;2023-10-19T12:59:19;17.00;99.90
18906;DHT22;9585;51.018;4.282;2023-10-19T13:01:46;17.20;99.90
18906;DHT22;9585;51.018;4.282;2023-10-19T13:04:20;17.30;99.90
18906;DHT22;9585;51.018;4.282;2023-10-19T13:06:50;17.40;99.90
18906;DHT22;9585;51.018;4.282;2023-10-19T13:09:17;17.40;99.90
18906;DHT22;9585;51.018;4.282;2023-10-19T13:11:50;17.40;99.90
18906;DHT22;9585;51.018;4.282;2023-10-19T13:14:18;17.50;99.90
18906;DHT22;9585;51.018;4.282;2023-10-19T13:16:45;17.70;99.90
18906;DHT22;9585;51.018;4.282;2023-10-19T13:19:15;17.70;99.90
18906;DHT22;9585;51.018;4.282;2023-10-19T13:21:47;17.70;99.90
18906;DHT22;9585;51.018;4.282;2023-10-19T13:24:15;17.70;99.90
18906;DHT22;9585;51.018;4.282;2023-10-19T13:26:42;17.70;99.90
18906;DHT22;9585;51.018;4.282;2023-10-19T13:29:14;17.50;99.90
18906;DHT22;9585;51.018;4.282;2023-10-19T13:31:43;17.40;99.90
18906;DHT22;9585;51.018;4.282;2023-10-19T13:34:15;17.50;99.90
18906;DHT22;9585;51.018;4.282;2023-10-19T13:36:43;17.60;99.90
18906;DHT22;9585;51.018;4.282;2023-10-19T13:39:12;17.90;99.90
18906;DHT22;9585;51.018;4.282;2023-10-19T13:41:42;18.10;99.90
18906;DHT22;9585;51.018;4.282;2023-10-19T13:44:10;18.10;99.90
18906;DHT22;9585;51.018;4.282;2023-10-19T13:46:40;18.10;99.90
18906;DHT22;9585;51.018;4.282;2023-10-19T13:49:07;18.10;99.90
18906;DHT22;9585;51.018;4.282;2023-10-19T13:51:35;18.10;99.90
18906;DHT22;9585;51.018;4.282;2023-10-19T13:54:05;18.00;99.90
18906;DHT22;9585;51.018;4.282;2023-10-19T13:56:32;18.00;99.90
18906;DHT22;9585;51.018;4.282;2023-10-19T13:59:03;18.00;99.90
18906;DHT22;9585;51.018;4.282;2023-10-19T14:01:31;18.10;99.90
18906;DHT22;9585;51.018;4.282;2023-10-19T14:04:01;18.30;99.90
18906;DHT22;9585;51.018;4.282;2023-10-19T14:06:28;18.40;99.90
18906;DHT22;9585;51.018;4.282;2023-10-19T14:09:01;18.40;99.90
18906;DHT22;9585;51.018;4.282;2023-10-19T14:11:31;18.30;99.90
18906;DHT22;9585;51.018;4.282;2023-10-19T14:13:58;18.30;99.90
18906;DHT22;9585;51.018;4.282;2023-10-19T14:16:26;18.40;99.90
18906;DHT22;9585;51.018;4.282;2023-10-19T14:18:53;18.60;99.90
18906;DHT22;9585;51.018;4.282;2023-10-19T14:21:23;18.60;99.90
18906;DHT22;9585;51.018;4.282;2023-10-19T14:23:53;18.70;99.90
18906;DHT22;9585;51.018;4.282;2023-10-19T14:26:20;18.60;99.90
18906;DHT22;9585;51.018;4.282;2023-10-19T14:28:48;18.50;99.90
18906;DHT22;9585;51.018;4.282;2023-10-19T14:31:16;18.40;99.90
18906;DHT22;9585;51.018;4.282;2023-10-19T14:33:47;18.40;99.90
18906;DHT22;9585;51.018;4.282;2023-10-19T14:36:14;18.40;99.90
18906;DHT22;9585;51.018;4.282;2023-10-19T14:38:45;18.30;99.90
18906;DHT22;9585;51.018;4.282;2023-10-19T14:41:13;18.20;99.90
18906;DHT22;9585;51.018;4.282;2023-10-19T14:43:46;18.00;99.90
18906;DHT22;9585;51.018;4.282;2023-10-19T14:46:14;17.90;99.90
18906;DHT22;9585;51.018;4.282;2023-10-19T14:48:42;17.80;99.90
18906;DHT22;9585;51.018;4.282;2023-10-19T14:51:09;17.70;99.90
18906;DHT22;9585;51.018;4.282;2023-10-19T14:53:38;17.60;99.90
18906;DHT22;9585;51.018;4.282;2023-10-19T14:56:10;17.60;99.90
18906;DHT22;9585;51.018;4.282;2023-10-19T14:58:38;17.60;99.90
18906;DHT22;9585;51.018;4.282;2023-10-19T15:01:05;17.70;99.90
18906;DHT22;9585;51.018;4.282;2023-10-19T15:03:40;17.70;99.90
18906;DHT22;9585;51.018;4.282;2023-10-19T15:06:08;17.80;99.90
18906;DHT22;9585;51.018;4.282;2023-10-19T15:08:36;17.80;99.90
18906;DHT22;9585;51.018;4.282;2023-10-19T15:11:04;17.80;99.90
18906;DHT22;9585;51.018;4.282;2023-10-19T15:13:35;17.70;99.90
18906;DHT22;9585;51.018;4.282;2023-10-19T15:16:07;17.80;99.90
18906;DHT22;9585;51.018;4.282;2023-10-19T15:18:38;17.80;99.90
18906;DHT22;9585;51.018;4.282;2023-10-19T15:21:13;17.80;99.90
18906;DHT22;9585;51.018;4.282;2023-10-19T15:23:41;17.90;99.90
18906;DHT22;9585;51.018;4.282;2023-10-19T15:26:09;17.80;99.90
18906;DHT22;9585;51.018;4.282;2023-10-19T15:28:39;17.80;99.90
18906;DHT22;9585;51.018;4.282;2023-10-19T15:31:09;17.80;99.90
18906;DHT22;9585;51.018;4.282;2023-10-19T15:33:37;17.80;99.90
18906;DHT22;9585;51.018;4.282;2023-10-19T15:36:05;17.80;99.90
18906;DHT22;9585;51.018;4.282;2023-10-19T15:38:33;17.90;99.90
18906;DHT22;9585;51.018;4.282;2023-10-19T15:41:00;17.90;99.90
18906;DHT22;9585;51.018;4.282;2023-10-19T15:43:28;17.90;99.90
18906;DHT22;9585;51.018;4.282;2023-10-19T15:45:59;17.80;99.90
18906;DHT22;9585;51.018;4.282;2023-10-19T15:48:31;17.70;99.90
18906;DHT22;9585;51.018;4.282;2023-10-19T15:51:00;17.50;99.90
18906;DHT22;9585;51.018;4.282;2023-10-19T15:53:28;17.50;99.90
18906;DHT22;9585;51.018;4.282;2023-10-19T15:55:56;17.50;99.90
18906;DHT22;9585;51.018;4.282;2023-10-19T15:58:26;17.40;99.90
18906;DHT22;9585;51.018;4.282;2023-10-19T16:00:54;17.40;99.90
18906;DHT22;9585;51.018;4.282;2023-10-19T16:03:24;17.50;99.90